createdAt,value
2023-02-08T00:02:01.372Z,99.16
2023-02-08T00:04:27.761Z,98.75
2023-02-08T00:06:54.167Z,99.20
2023-02-08T00:09:20.526Z,98.87
2023-02-08T00:11:46.944Z,98.84
2023-02-08T00:14:13.342Z,99.51
2023-02-08T00:16:39.762Z,100.00
2023-02-08T00:19:06.120Z,100.00
2023-02-08T00:21:32.595Z,98.76
2023-02-08T00:23:58.934Z,100.00
2023-02-08T00:26:25.406Z,100.00
2023-02-08T00:28:51.763Z,100.00
2023-02-08T00:31:18.407Z,100.00
2023-02-08T00:33:44.824Z,100.00
2023-02-08T00:36:11.487Z,100.00
2023-02-08T00:38:38.006Z,100.00
2023-02-08T00:41:04.928Z,100.00
2023-02-08T00:43:31.603Z,100.00
2023-02-08T00:45:58.661Z,100.00
2023-02-08T00:48:25.790Z,100.00
2023-02-08T00:51:02.982Z,100.00
2023-02-08T00:53:29.673Z,100.00
2023-02-08T00:55:56.528Z,100.00
2023-02-08T00:58:23.325Z,100.00
2023-02-08T01:00:53.165Z,100.00
2023-02-08T01:03:20.268Z,100.00
2023-02-08T01:05:46.636Z,100.00
2023-02-08T01:08:13.075Z,100.00
2023-02-08T01:10:39.699Z,100.00
2023-02-08T01:13:06.270Z,100.00
2023-02-08T01:15:32.669Z,100.00
2023-02-08T01:17:59.064Z,100.00
2023-02-08T01:20:25.516Z,100.00
2023-02-08T01:22:51.921Z,100.00
2023-02-08T01:25:18.308Z,100.00
2023-02-08T01:27:44.732Z,100.00
2023-02-08T01:30:11.408Z,100.00
2023-02-08T01:32:37.884Z,100.00
2023-02-08T01:35:04.463Z,100.00
2023-02-08T01:37:30.885Z,100.00
2023-02-08T01:39:57.319Z,100.00
2023-02-08T01:42:23.757Z,100.00
2023-02-08T01:45:05.354Z,100.00
2023-02-08T01:47:31.809Z,100.00
2023-02-08T01:49:58.261Z,100.00
2023-02-08T01:52:26.823Z,100.00
2023-02-08T01:54:56.572Z,100.00
2023-02-08T01:57:23.454Z,100.00
2023-02-08T01:59:52.495Z,100.00
2023-02-08T02:02:21.027Z,100.00
2023-02-08T02:04:48.657Z,100.00
2023-02-08T02:07:16.345Z,100.00
2023-02-08T02:09:45.612Z,100.00
2023-02-08T02:12:12.375Z,100.00
2023-02-08T02:14:39.340Z,100.00
2023-02-08T02:17:06.296Z,100.00
2023-02-08T02:19:48.123Z,100.00
2023-02-08T02:22:32.920Z,100.00
2023-02-08T02:25:11.871Z,100.00
2023-02-08T02:27:41.070Z,100.00
2023-02-08T02:30:13.514Z,100.00
2023-02-08T02:32:50.832Z,100.00
2023-02-08T02:35:40.547Z,100.00
2023-02-08T02:38:14.431Z,100.00
2023-02-08T02:40:46.143Z,100.00
2023-02-08T02:43:35.139Z,100.00
2023-02-08T02:46:07.363Z,100.00
2023-02-08T02:48:39.728Z,100.00
2023-02-08T02:51:09.901Z,100.00
2023-02-08T02:53:36.279Z,100.00
2023-02-08T02:56:06.603Z,100.00
2023-02-08T02:58:33.220Z,100.00
2023-02-08T03:00:59.747Z,100.00
2023-02-08T03:03:27.436Z,100.00
2023-02-08T03:05:58.560Z,100.00
2023-02-08T03:08:40.287Z,100.00
2023-02-08T03:11:15.624Z,100.00
2023-02-08T03:13:45.041Z,100.00
2023-02-08T03:16:11.407Z,100.00
2023-02-08T03:18:46.962Z,100.00
2023-02-08T03:21:16.331Z,100.00
2023-02-08T03:24:01.640Z,100.00
2023-02-08T03:26:28.071Z,100.00
2023-02-08T03:28:57.218Z,100.00
2023-02-08T03:31:28.683Z,100.00
2023-02-08T03:34:01.724Z,100.00
2023-02-08T03:36:35.210Z,100.00
2023-02-08T03:39:03.544Z,100.00
2023-02-08T03:41:33.775Z,100.00
2023-02-08T03:44:03.542Z,100.00
2023-02-08T03:46:34.938Z,100.00
2023-02-08T03:49:09.363Z,100.00
2023-02-08T03:51:39.059Z,100.00
2023-02-08T03:54:07.672Z,100.00
2023-02-08T03:56:34.046Z,100.00
2023-02-08T03:59:03.606Z,100.00
2023-02-08T04:01:32.237Z,100.00
2023-02-08T04:03:59.897Z,100.00
2023-02-08T04:06:26.649Z,100.00
2023-02-08T04:08:53.081Z,100.00
2023-02-08T04:11:19.876Z,100.00
2023-02-08T04:13:46.227Z,100.00
2023-02-08T04:16:12.831Z,100.00
2023-02-08T04:18:39.214Z,100.00
2023-02-08T04:21:05.905Z,100.00
2023-02-08T04:23:32.287Z,100.00
2023-02-08T04:25:58.747Z,100.00
2023-02-08T04:28:25.095Z,100.00
2023-02-08T04:30:51.592Z,100.00
2023-02-08T04:33:17.989Z,100.00
2023-02-08T04:35:44.373Z,100.00
2023-02-08T04:38:10.895Z,100.00
2023-02-08T04:40:37.287Z,100.00
2023-02-08T04:43:03.975Z,100.00
2023-02-08T04:45:32.090Z,100.00
2023-02-08T04:47:59.274Z,100.00
2023-02-08T04:50:26.141Z,100.00
2023-02-08T04:52:52.579Z,100.00
2023-02-08T04:55:18.953Z,100.00
2023-02-08T04:57:45.336Z,100.00
2023-02-08T05:00:12.094Z,100.00
2023-02-08T05:02:38.523Z,100.00
2023-02-08T05:05:05.231Z,100.00
2023-02-08T05:07:31.678Z,100.00
2023-02-08T05:09:58.053Z,100.00
2023-02-08T05:12:24.466Z,100.00
2023-02-08T05:14:50.896Z,100.00
2023-02-08T05:17:17.263Z,100.00
2023-02-08T05:19:43.659Z,100.00
2023-02-08T05:22:10.005Z,100.00
2023-02-08T05:24:36.456Z,100.00
2023-02-08T05:27:02.810Z,100.00
2023-02-08T05:29:29.261Z,100.00
2023-02-08T05:31:55.709Z,100.00
2023-02-08T05:34:22.177Z,100.00
2023-02-08T05:36:48.554Z,100.00
2023-02-08T05:39:14.975Z,100.00
2023-02-08T05:41:41.333Z,100.00
2023-02-08T05:44:07.764Z,100.00
2023-02-08T05:46:35.460Z,100.00
2023-02-08T05:49:03.529Z,100.00
2023-02-08T05:51:29.862Z,100.00
2023-02-08T05:53:56.237Z,100.00
2023-02-08T05:56:22.629Z,100.00
2023-02-08T05:58:49.085Z,100.00
2023-02-08T06:01:15.478Z,100.00
2023-02-08T06:03:41.927Z,100.00
2023-02-08T06:06:11.217Z,100.00
2023-02-08T06:08:38.695Z,100.00
2023-02-08T06:11:05.429Z,100.00
2023-02-08T06:13:32.024Z,100.00
2023-02-08T06:15:58.409Z,100.00
2023-02-08T06:18:24.858Z,100.00
2023-02-08T06:20:54.717Z,100.00
2023-02-08T06:23:21.385Z,100.00
2023-02-08T06:25:47.820Z,100.00
2023-02-08T06:28:14.270Z,100.00
2023-02-08T06:30:41.260Z,100.00
2023-02-08T06:33:07.856Z,100.00
2023-02-08T06:35:34.292Z,100.00
2023-02-08T06:38:00.868Z,100.00
2023-02-08T06:40:27.381Z,100.00
2023-02-08T06:42:53.825Z,100.00
2023-02-08T06:45:20.230Z,100.00
2023-02-08T06:47:46.615Z,100.00
2023-02-08T06:50:14.804Z,100.00
2023-02-08T06:52:41.194Z,100.00
2023-02-08T06:55:07.739Z,100.00
2023-02-08T06:57:34.105Z,100.00
2023-02-08T07:00:00.487Z,100.00
2023-02-08T07:02:27.735Z,100.00
2023-02-08T07:04:54.353Z,100.00
2023-02-08T07:07:20.761Z,100.00
2023-02-08T07:09:47.223Z,100.00
2023-02-08T07:12:13.758Z,100.00
2023-02-08T07:14:41.604Z,100.00
2023-02-08T07:17:08.381Z,100.00
2023-02-08T07:19:34.757Z,100.00
2023-02-08T07:22:07.196Z,100.00
2023-02-08T07:24:37.914Z,100.00
2023-02-08T07:27:05.157Z,100.00
2023-02-08T07:29:32.162Z,100.00
2023-02-08T07:31:59.330Z,100.00
2023-02-08T07:34:25.937Z,100.00
2023-02-08T07:36:52.404Z,100.00
2023-02-08T07:39:18.825Z,100.00
2023-02-08T07:41:45.275Z,100.00
2023-02-08T07:44:11.727Z,100.00
2023-02-08T07:46:38.177Z,100.00
2023-02-08T07:49:04.725Z,100.00
2023-02-08T07:51:36.287Z,100.00
2023-02-08T07:54:27.646Z,98.53
2023-02-08T07:57:03.681Z,97.15
2023-02-08T08:02:42.360Z,91.08
2023-02-08T08:05:31.913Z,90.02
2023-02-08T08:11:25.722Z,85.50
2023-02-08T08:27:35.181Z,79.71
2023-02-08T08:33:53.039Z,79.04
2023-02-08T08:42:41.350Z,77.03
2023-02-08T08:45:08.937Z,75.65
2023-02-08T08:47:35.313Z,73.74
2023-02-08T08:50:01.934Z,74.87
2023-02-08T08:52:28.445Z,72.34
2023-02-08T08:54:55.108Z,71.01
2023-02-08T08:57:24.341Z,69.73
2023-02-08T08:59:50.901Z,67.75
2023-02-08T09:02:17.371Z,67.32
2023-02-08T09:04:43.834Z,67.80
2023-02-08T09:07:10.431Z,67.13
2023-02-08T09:09:36.924Z,67.24
2023-02-08T09:12:03.612Z,65.14
2023-02-08T09:14:30.024Z,63.74
2023-02-08T09:16:56.375Z,64.89
2023-02-08T09:19:22.786Z,67.10
2023-02-08T09:21:49.166Z,68.68
2023-02-08T09:24:16.510Z,70.67
2023-02-08T09:26:42.940Z,72.93
2023-02-08T09:29:09.357Z,70.73
2023-02-08T09:31:37.844Z,69.28
2023-02-08T09:34:05.067Z,71.48
2023-02-08T09:36:36.422Z,72.15
2023-02-08T09:39:14.564Z,73.41
2023-02-08T09:41:42.644Z,74.16
2023-02-08T09:44:14.963Z,72.50
2023-02-08T09:46:44.479Z,69.77
2023-02-08T09:49:16.802Z,67.36
2023-02-08T09:51:50.981Z,68.69
2023-02-08T09:54:30.380Z,70.79
2023-02-08T09:56:58.257Z,73.14
2023-02-08T09:59:29.447Z,74.28
2023-02-08T10:02:11.064Z,74.33
2023-02-08T10:04:48.295Z,73.11
2023-02-08T10:07:14.704Z,73.47
2023-02-08T10:09:41.088Z,74.91
2023-02-08T10:12:16.582Z,74.59
2023-02-08T10:14:43.443Z,76.56
2023-02-08T10:17:19.756Z,74.14
2023-02-08T10:20:06.369Z,74.36
2023-02-08T10:22:48.429Z,74.82
2023-02-08T10:25:25.481Z,73.71
2023-02-08T10:28:06.915Z,73.12
2023-02-08T10:30:33.395Z,72.23
2023-02-08T10:33:01.728Z,70.07
2023-02-08T10:35:32.345Z,68.73
2023-02-08T10:41:43.195Z,100.00
2023-02-08T10:44:15.447Z,100.00
2023-02-08T10:46:50.019Z,79.74
2023-02-08T10:49:35.012Z,67.88
2023-02-08T10:52:02.483Z,60.14
2023-02-08T10:54:28.980Z,54.77
2023-02-08T10:56:57.601Z,51.60
2023-02-08T10:59:26.157Z,49.24
2023-02-08T11:01:53.124Z,47.66
2023-02-08T11:04:19.705Z,46.38
2023-02-08T11:06:47.374Z,45.32
2023-02-08T11:09:24.555Z,44.40
2023-02-08T11:11:52.859Z,43.33
2023-02-08T11:14:22.788Z,42.68
2023-02-08T11:16:52.957Z,42.15
2023-02-08T11:19:31.444Z,41.32
2023-02-08T11:21:59.017Z,40.77
2023-02-08T11:24:26.995Z,40.27
2023-02-08T11:26:53.595Z,40.25
2023-02-08T11:29:25.573Z,40.17
2023-02-08T11:31:55.050Z,39.78
2023-02-08T11:39:18.689Z,40.87
2023-02-08T11:41:51.963Z,42.75
2023-02-08T11:48:04.427Z,44.30
2023-02-08T11:52:03.398Z,44.84
2023-02-08T11:54:04.677Z,45.87
2023-02-08T12:21:29.622Z,43.01
2023-02-08T12:24:17.519Z,42.52
2023-02-08T12:26:52.991Z,42.25
2023-02-08T12:29:46.856Z,42.52
2023-02-08T12:32:14.497Z,42.12
2023-02-08T12:35:26.781Z,42.27
2023-02-08T12:38:33.485Z,41.58
2023-02-08T12:41:14.927Z,40.80
2023-02-08T12:44:15.244Z,40.40
2023-02-08T12:51:27.880Z,41.60
2023-02-08T12:53:56.882Z,41.02
2023-02-08T12:56:53.648Z,40.68
2023-02-08T12:59:30.264Z,40.69
2023-02-08T13:02:01.782Z,40.98
2023-02-08T13:04:39.599Z,40.93
2023-02-08T13:07:13.188Z,40.80
2023-02-08T13:09:48.504Z,40.83
2023-02-08T13:12:18.013Z,40.85
2023-02-08T13:17:13.870Z,40.71
2023-02-08T13:23:53.135Z,29.13
2023-02-08T13:26:31.753Z,33.58
2023-02-08T13:29:01.492Z,35.17
2023-02-08T13:31:31.646Z,36.06
2023-02-08T13:34:02.215Z,39.47
2023-02-08T13:36:31.173Z,38.73
2023-02-08T13:38:59.014Z,39.93
2023-02-08T13:41:26.487Z,39.13
2023-02-08T13:43:58.714Z,38.01
2023-02-08T13:46:27.005Z,38.17
2023-02-08T13:48:55.203Z,34.72
2023-02-08T13:51:30.722Z,35.03
2023-02-08T13:53:57.237Z,34.41
2023-02-08T13:56:49.796Z,34.75
2023-02-08T13:59:27.979Z,33.93
2023-02-08T14:02:12.962Z,32.04
2023-02-08T14:04:40.399Z,32.06
2023-02-08T14:07:06.729Z,29.18
2023-02-08T14:09:51.668Z,28.22
2023-02-08T14:12:24.494Z,25.74
2023-02-08T14:15:09.695Z,25.75
2023-02-08T14:17:36.236Z,27.60
2023-02-08T14:20:05.424Z,32.73
2023-02-08T14:22:37.375Z,37.60
2023-02-08T14:25:06.392Z,42.84
2023-02-08T14:27:41.193Z,44.08
2023-02-08T14:30:07.717Z,46.49
2023-02-08T14:32:41.039Z,46.83
2023-02-08T14:35:13.532Z,48.86
2023-02-08T14:37:40.499Z,50.52
2023-02-08T14:40:25.289Z,51.26
2023-02-08T14:43:02.453Z,51.83
2023-02-08T14:45:36.192Z,52.70
2023-02-08T14:48:41.319Z,53.33
2023-02-08T14:51:10.596Z,53.55
2023-02-08T14:53:44.220Z,54.16
2023-02-08T14:56:26.000Z,55.39
2023-02-08T14:59:04.556Z,54.81
2023-02-08T15:01:50.923Z,54.50
2023-02-08T15:04:20.282Z,54.50
2023-02-08T15:07:05.373Z,55.48
2023-02-08T15:09:35.280Z,55.67
2023-02-08T15:12:02.907Z,55.63
2023-02-08T15:14:30.474Z,56.21
2023-02-08T15:16:56.915Z,55.94
2023-02-08T15:19:26.028Z,56.42
2023-02-08T15:21:52.494Z,56.90
2023-02-08T15:24:22.441Z,57.15
2023-02-08T15:26:53.287Z,56.59
2023-02-08T15:29:19.633Z,57.63
2023-02-08T15:31:46.549Z,57.42
2023-02-08T15:34:13.004Z,58.17
2023-02-08T15:36:40.882Z,58.02
2023-02-08T15:39:15.071Z,58.51
2023-02-08T15:41:41.468Z,58.27
2023-02-08T15:44:16.954Z,58.39
2023-02-08T15:46:44.246Z,58.37
2023-02-08T15:49:18.305Z,58.51
2023-02-08T15:51:45.480Z,58.78
2023-02-08T15:54:16.746Z,58.67
2023-02-08T15:58:46.319Z,58.82
2023-02-08T16:01:17.241Z,59.22
2023-02-08T16:03:47.351Z,59.32
2023-02-08T16:06:13.804Z,59.65
2023-02-08T16:08:41.403Z,59.19
2023-02-08T16:11:12.622Z,59.53
2023-02-08T16:18:58.459Z,51.96
2023-02-08T16:21:24.940Z,47.37
2023-02-08T16:23:57.553Z,45.15
2023-02-08T16:26:28.664Z,44.01
2023-02-08T16:29:01.235Z,43.45
2023-02-08T16:31:31.040Z,42.85
2023-02-08T16:33:59.706Z,42.88
2023-02-08T16:36:32.514Z,42.71
2023-02-08T16:39:14.071Z,42.11
2023-02-08T16:42:15.775Z,41.91
2023-02-08T16:45:17.250Z,41.99
2023-02-08T16:47:55.111Z,41.77
2023-02-08T16:50:27.787Z,42.69
2023-02-08T16:52:59.707Z,42.10
2023-02-08T16:55:29.965Z,42.48
2023-02-08T16:57:58.135Z,42.65
2023-02-08T17:00:31.054Z,42.63
2023-02-08T17:02:58.182Z,41.46
2023-02-08T17:05:28.737Z,41.96
2023-02-08T17:07:55.702Z,41.70
2023-02-08T17:10:31.104Z,42.07
2023-02-08T17:13:17.509Z,42.34
2023-02-08T17:15:47.884Z,42.69
2023-02-08T17:18:14.821Z,42.36
2023-02-08T17:20:41.788Z,43.28
2023-02-08T17:23:10.047Z,42.69
2023-02-08T17:25:36.743Z,42.82
2023-02-08T17:28:11.605Z,66.68
2023-02-08T17:33:50.293Z,45.63
2023-02-08T17:36:17.643Z,48.58
2023-02-08T17:38:46.303Z,51.43
2023-02-08T17:45:32.434Z,43.84
2023-02-08T17:49:59.799Z,49.97
2023-02-08T17:53:54.778Z,99.35
2023-02-08T17:56:27.704Z,100.00
2023-02-08T17:58:55.871Z,100.00
2023-02-08T18:01:25.450Z,100.00
2023-02-08T18:03:53.215Z,100.00
2023-02-08T18:06:20.064Z,100.00
2023-02-08T18:08:46.629Z,100.00
2023-02-08T18:11:18.025Z,100.00
2023-02-08T18:13:45.479Z,100.00
2023-02-08T18:16:18.969Z,100.00
2023-02-08T18:18:46.180Z,100.00
2023-02-08T18:21:21.529Z,74.13
2023-02-08T18:23:51.864Z,85.17
2023-02-08T18:26:21.286Z,86.44
2023-02-08T18:28:48.586Z,87.20
2023-02-08T18:31:16.756Z,85.72
2023-02-08T18:33:43.922Z,85.00
2023-02-08T18:36:13.499Z,82.94
2023-02-08T18:38:40.323Z,82.67
2023-02-08T18:41:10.996Z,81.27
2023-02-08T18:43:37.828Z,79.57
2023-02-08T18:46:05.770Z,77.76
2023-02-08T18:48:32.238Z,73.17
2023-02-08T18:50:59.470Z,72.94
2023-02-08T18:53:29.242Z,72.22
2023-02-08T18:56:00.077Z,72.86
2023-02-08T18:58:26.904Z,74.15
2023-02-08T19:00:53.667Z,72.40
2023-02-08T19:03:20.471Z,71.46
2023-02-08T19:05:47.238Z,70.35
2023-02-08T19:08:14.320Z,70.14
2023-02-08T19:10:41.182Z,54.43
2023-02-08T19:13:07.992Z,50.87
2023-02-08T19:16:32.985Z,58.56
2023-02-08T19:19:01.135Z,61.69
2023-02-08T19:21:31.296Z,63.36
2023-02-08T19:23:58.264Z,64.04
2023-02-08T19:26:30.603Z,63.34
2023-02-08T19:28:59.512Z,61.94
2023-02-08T19:31:27.902Z,61.82
2023-02-08T19:33:58.579Z,59.45
2023-02-08T19:36:27.758Z,60.29
2023-02-08T19:38:55.367Z,60.14
2023-02-08T19:41:25.207Z,60.42
2023-02-08T19:43:52.153Z,60.74
2023-02-08T19:46:22.383Z,61.85
2023-02-08T19:48:49.450Z,61.13
2023-02-08T19:51:15.875Z,60.58
2023-02-08T19:53:42.350Z,59.74
2023-02-08T19:56:11.466Z,59.73
2023-02-08T19:58:38.073Z,59.01
2023-02-08T20:01:18.184Z,59.06
2023-02-08T20:03:44.961Z,58.67
2023-02-08T20:06:14.428Z,58.11
2023-02-08T20:08:40.866Z,58.46
2023-02-08T20:11:07.217Z,58.43
2023-02-08T20:13:33.602Z,58.22
2023-02-08T20:16:00.110Z,57.95
2023-02-08T20:18:26.573Z,57.88
2023-02-08T20:21:00.299Z,57.60
2023-02-08T20:23:26.940Z,57.43
2023-02-08T20:26:02.881Z,56.90
2023-02-08T20:28:29.312Z,56.29
2023-02-08T20:30:55.832Z,55.46
2023-02-08T20:33:22.244Z,55.06
2023-02-08T20:35:48.703Z,54.33
2023-02-08T20:38:15.115Z,53.99
2023-02-08T20:40:41.674Z,53.46
2023-02-08T20:43:08.191Z,53.07
2023-02-08T20:45:34.556Z,52.64
2023-02-08T20:48:00.974Z,52.30
2023-02-08T20:50:27.922Z,51.92
2023-02-08T20:52:54.339Z,51.43
2023-02-08T20:55:20.733Z,50.83
2023-02-08T20:57:47.210Z,50.30
2023-02-08T21:00:13.925Z,49.96
2023-02-08T21:02:41.911Z,49.52
2023-02-08T21:05:08.333Z,49.06
2023-02-08T21:07:34.749Z,48.67
2023-02-08T21:10:03.935Z,48.44
2023-02-08T21:12:32.014Z,48.37
2023-02-08T21:14:59.464Z,47.98
2023-02-08T21:17:25.933Z,47.63
2023-02-08T21:19:52.385Z,47.66
2023-02-08T21:22:18.832Z,44.97
2023-02-08T21:24:45.213Z,45.79
2023-02-08T21:27:12.932Z,44.68
2023-02-08T21:29:39.312Z,46.41
2023-02-08T21:32:05.910Z,46.81
2023-02-08T21:34:32.308Z,46.78
2023-02-08T21:36:58.717Z,46.69
2023-02-08T21:39:25.083Z,45.27
2023-02-08T21:41:52.252Z,45.46
2023-02-08T21:46:17.862Z,46.09
2023-02-08T21:49:02.965Z,46.09
2023-02-08T21:51:48.309Z,45.99
2023-02-08T21:54:37.114Z,46.26
2023-02-08T21:57:05.947Z,46.36
2023-02-08T21:59:39.643Z,46.20
2023-02-08T22:02:13.922Z,46.31
2023-02-08T22:04:41.988Z,46.30
2023-02-08T22:07:08.539Z,46.32
2023-02-08T22:09:36.427Z,46.17
2023-02-08T22:12:02.995Z,46.01
2023-02-08T22:14:29.509Z,45.97
2023-02-08T22:16:55.990Z,46.29
2023-02-08T22:19:22.480Z,46.22
2023-02-08T22:21:49.005Z,45.87
2023-02-08T22:24:15.477Z,46.12
2023-02-08T22:26:43.827Z,46.26
2023-02-08T22:29:10.537Z,46.33
2023-02-08T22:31:37.314Z,46.37
2023-02-08T22:34:04.539Z,46.08
2023-02-08T22:36:31.469Z,46.24
2023-02-08T22:38:58.006Z,45.95
2023-02-08T22:41:24.517Z,45.91
2023-02-08T22:43:51.086Z,46.39
2023-02-08T22:46:17.721Z,46.37
2023-02-08T22:48:44.263Z,46.33
2023-02-08T22:51:14.705Z,46.08
2023-02-08T22:53:41.542Z,45.98
2023-02-08T22:56:08.442Z,46.14
2023-02-08T22:58:35.588Z,46.32
2023-02-08T23:01:02.174Z,46.14
2023-02-08T23:03:28.747Z,46.23
2023-02-08T23:05:55.291Z,46.08
2023-02-08T23:08:22.428Z,46.00
2023-02-08T23:10:49.197Z,45.99
2023-02-08T23:13:15.961Z,46.16
2023-02-08T23:15:44.781Z,46.14
2023-02-08T23:18:11.676Z,46.01
2023-02-08T23:20:40.552Z,46.04
2023-02-08T23:23:07.502Z,46.40
2023-02-08T23:25:34.423Z,46.06
2023-02-08T23:28:01.137Z,46.25
2023-02-08T23:30:27.786Z,46.12
2023-02-08T23:32:54.541Z,46.54
2023-02-08T23:35:21.059Z,46.10
2023-02-08T23:37:47.596Z,46.35
2023-02-08T23:40:14.281Z,46.15
2023-02-08T23:42:40.942Z,46.25
2023-02-08T23:45:08.156Z,46.13
2023-02-08T23:47:34.803Z,45.94
2023-02-08T23:50:01.354Z,46.21
2023-02-08T23:52:27.840Z,46.20
2023-02-08T23:54:54.377Z,46.06
2023-02-08T23:57:20.863Z,46.30
2023-02-08T23:59:47.561Z,45.97
